METAR Data
IDs: Format: Raw Decoded Include TAF

Data at: 1343 UTC 10 Aug 2022

KE16 101335Z AUTO 00000KT 10SM FEW015 13/12 A3008 RMK AO2 PWINO PNO
KE16 101315Z AUTO 00000KT 10SM SCT015 13/12 A3007 RMK AO2 PWINO PNO
KE16 101255Z AUTO 00000KT 10SM BKN013 14/12 A3007 RMK AO2 PWINO PNO
KE16 101235Z AUTO 00000KT 10SM OVC013 14/12 A3006 RMK AO2 PWINO PNO
KE16 101215Z AUTO 00000KT 10SM OVC013 14/12 A3005 RMK AO2 PWINO PNO
KE16 101155Z AUTO 00000KT 10SM BKN013 13/12 A3006 RMK AO2 PWINO PNO
KE16 101135Z AUTO 00000KT 10SM SCT015 14/12 A3006 RMK AO2 PWINO PNO
KE16 101115Z AUTO 00000KT 10SM CLR 14/12 A3005 RMK AO2 PWINO PNO
KE16 101055Z AUTO 00000KT 10SM CLR 14/12 A3005 RMK AO2 PWINO PNO
KE16 101035Z AUTO 00000KT 10SM CLR 14/12 A3005 RMK AO2 PWINO PNO
KE16 101015Z AUTO 00000KT 10SM CLR 14/13 A3005 RMK AO2 PWINO PNO
KE16 100955Z AUTO 00000KT 10SM CLR 14/13 A3005 RMK AO2 PWINO PNO
KE16 100935Z AUTO 00000KT 10SM CLR 15/13 A3005 RMK AO2 PWINO PNO
KE16 100915Z AUTO 00000KT 10SM CLR 15/13 A3005 RMK AO2 PWINO PNO
KE16 100855Z AUTO 00000KT 10SM CLR 15/13 A3005 RMK AO2 PWINO PNO
KE16 100835Z AUTO 00000KT 10SM CLR 15/13 A3005 RMK AO2 PWINO PNO
KE16 100815Z AUTO 11003KT 10SM CLR 15/13 A3005 RMK AO2 PWINO PNO
KE16 100755Z AUTO 00000KT 10SM CLR 16/13 A3006 RMK AO2 PWINO PNO
KE16 100735Z AUTO 16003KT 10SM CLR 17/13 A3006 RMK AO2 PWINO PNO
KE16 100715Z AUTO 00000KT 10SM CLR 18/13 A3006 RMK AO2 PWINO PNO
KE16 100655Z AUTO 31004KT 10SM FEW028 18/13 A3005 RMK AO2 PWINO PNO
KE16 100635Z AUTO 00000KT 10SM CLR 18/13 A3005 RMK AO2 PWINO PNO
KE16 100615Z AUTO 00000KT 10SM CLR 18/13 A3005 RMK AO2 PWINO PNO
KE16 100555Z AUTO 32004KT 10SM FEW030 19/13 A3004 RMK AO2 PWINO PNO
KE16 100535Z AUTO 30007KT 10SM BKN028 19/13 A3005 RMK AO2 PWINO PNO
KE16 100515Z AUTO 31007KT 10SM OVC028 19/13 A3004 RMK AO2 PWINO PNO
KE16 100455Z AUTO 30006KT 10SM BKN028 BKN034 19/13 A3004 RMK AO2 PWINO PNO
KE16 100435Z AUTO 30007KT 10SM SCT030 20/12 A3003 RMK AO2 PWINO PNO
KE16 100415Z AUTO 31007KT 10SM SCT030 20/12 A3002 RMK AO2 PWINO PNO
KE16 100355Z AUTO 33009KT 10SM FEW032 21/12 A3001 RMK AO2 PWINO PNO
KE16 100335Z AUTO 33011KT 10SM FEW030 21/12 A3000 RMK AO2 PWINO PNO
KE16 100315Z AUTO 32009G16KT 10SM CLR 22/12 A3000 RMK AO2 PWINO PNO
KE16 100255Z AUTO 33009KT 10SM CLR 23/12 A2999 RMK AO2 PWINO PNO
KE16 100235Z AUTO 33011G15KT 10SM CLR 23/12 A2999 RMK AO2 PWINO PNO
KE16 100215Z AUTO 33011G15KT 10SM CLR 24/12 A2997 RMK AO2 PWINO PNO
KE16 100155Z AUTO 33011KT 10SM CLR 25/12 A2997 RMK AO2 PWINO PNO
KE16 100135Z AUTO 34013G17KT 10SM CLR 25/12 A2996 RMK AO2 PWINO PNO
KE16 100115Z AUTO 34012G16KT 10SM CLR 27/12 A2996 RMK AO2 PWINO PNO
KE16 100055Z AUTO 33009G15KT 290V350 10SM CLR 27/12 A2996 RMK AO2 PWINO PNO
KE16 100035Z AUTO 30005KT 220V330 10SM CLR 28/12 A2995 RMK AO2 PWINO PNO
KE16 100015Z AUTO 23006KT 180V260 10SM CLR 28/11 A2995 RMK AO2 PWINO PNO
KE16 092355Z AUTO 24008G17KT 180V270 10SM CLR 28/12 A2994 RMK AO2 PWINO PNO
KE16 092335Z AUTO 21013KT 10SM CLR 29/12 A2994 RMK AO2 PWINO PNO
KE16 092315Z AUTO 30004KT 10SM CLR 30/12 A2994 RMK AO2 PWINO PNO
KE16 092255Z AUTO 36004KT 10SM CLR 30/12 A2995 RMK AO2 PWINO PNO
KE16 092235Z AUTO 32008KT 10SM CLR 30/12 A2995 RMK AO2 PWINO PNO
KE16 092215Z AUTO 34008KT 10SM CLR 29/11 A2995 RMK AO2 PWINO PNO
KE16 092155Z AUTO 34003G14KT 10SM CLR 29/11 A2996 RMK AO2 PWINO PNO
KE16 092135Z AUTO 31008G14KT 10SM CLR 29/11 A2996 RMK AO2 PWINO PNO
KE16 092115Z AUTO 31007KT 270V330 10SM CLR 29/11 A2997 RMK AO2 PWINO PNO
KE16 092055Z AUTO 31006KT 10SM CLR 28/11 A2997 RMK AO2 PWINO PNO
KE16 092035Z AUTO 33007KT 280V340 10SM CLR 28/11 A2998 RMK AO2 PWINO PNO
KE16 092015Z AUTO 29003KT 10SM CLR 27/10 A2998 RMK AO2 PWINO PNO
KE16 091955Z AUTO 34008KT 10SM CLR 27/09 A2999 RMK AO2 PWINO PNO
KE16 091935Z AUTO 36005KT 10SM CLR 26/09 A3000 RMK AO2 PWINO PNO
KE16 091915Z AUTO 33007KT 10SM CLR 25/08 A3001 RMK AO2 PWINO PNO
KE16 091855Z AUTO 33006KT 10SM CLR 25/10 A3001 RMK AO2 PWINO PNO
KE16 091835Z AUTO 35006KT 10SM CLR 24/11 A3002 RMK AO2 PWINO PNO
KE16 091815Z AUTO 36007KT 10SM CLR 23/10 A3002 RMK AO2 PWINO PNO
KE16 091755Z AUTO 32008KT 10SM CLR 22/12 A3002 RMK AO2 PWINO PNO
KE16 091735Z AUTO 33008KT 10SM CLR 21/12 A3002 RMK AO2 PWINO PNO
KE16 091715Z AUTO 32009KT 10SM CLR 20/12 A3002 RMK AO2 PWINO PNO
KE16 091655Z AUTO 32007KT 10SM CLR 20/12 A3003 RMK AO2 PWINO PNO
KE16 091635Z AUTO 32006KT 10SM CLR 19/12 A3003 RMK AO2 PWINO PNO
KE16 091615Z AUTO 29009KT 260V320 10SM FEW019 19/13 A3003 RMK AO2 PWINO PNO
KE16 091555Z AUTO 30010G14KT 10SM BKN019 18/13 A3003 RMK AO2 PWINO PNO
KE16 091535Z AUTO 30008KT 10SM OVC019 18/13 A3003 RMK AO2 PWINO PNO
KE16 091515Z AUTO 31008KT 10SM OVC019 18/13 A3003 RMK AO2 PWINO PNO
KE16 091455Z AUTO 31007KT 10SM OVC017 18/13 A3003 RMK AO2 PWINO PNO
KE16 091435Z AUTO 32006G14KT 10SM OVC017 17/13 A3002 RMK AO2 PWINO PNO
KE16 091415Z AUTO 31008KT 10SM OVC015 17/13 A3001 RMK AO2 PWINO PNO
KE16 091355Z AUTO 34006KT 10SM OVC015 17/13 A3001 RMK AO2 PWINO PNO
KE16 091335Z AUTO 32008KT 10SM BKN015 17/13 A3001 RMK AO2 PWINO PNO
KE16 091315Z AUTO 30005KT 10SM OVC015 17/13 A3000 RMK AO2 PWINO PNO
KE16 091255Z AUTO 31008KT 10SM OVC015 17/13 A3000 RMK AO2 PWINO PNO
KE16 091235Z AUTO 33008KT 10SM OVC013 17/13 A3000 RMK AO2 PWINO PNO
KE16 091215Z AUTO 32008KT 10SM OVC013 17/13 A3000 RMK AO2 PWINO PNO
KE16 091155Z AUTO 32006KT 10SM OVC013 17/14 A3000 RMK AO2 PWINO PNO
KE16 091135Z AUTO 32003KT 10SM SCT013 OVC048 16/13 A2999 RMK AO2 PWINO PNO
KE16 091115Z AUTO 32006KT 10SM SCT013 OVC048 17/14 A2999 RMK AO2 PWINO PNO
KE16 091055Z AUTO 32008KT 10SM BKN013 OVC048 17/14 A2999 RMK AO2 PWINO PNO
KE16 091035Z AUTO 32010KT 10SM BKN013 OVC048 17/13 A2998 RMK AO2 PWINO PNO
KE16 091015Z AUTO 32007KT 10SM OVC048 17/13 A2999 RMK AO2 PWINO PNO
KE16 091000Z AUTO 32006KT 10SM OVC050 17/13 A2999 RMK AO2 PWINO PNO
KE16 090935Z AUTO 32009KT 10SM OVC050 17/13 A2999 RMK AO2 PWINO PNO
KE16 090915Z AUTO 31007G14KT 10SM OVC050 17/13 A2999 RMK AO2 PWINO PNO
KE16 090855Z AUTO 32008KT 10SM OVC050 17/13 A2999 RMK AO2 PWINO PNO
KE16 090835Z AUTO 31009KT 10SM OVC050 18/13 A2999 RMK AO2 PWINO PNO
KE16 090815Z AUTO 31007KT 10SM OVC050 18/13 A2999 RMK AO2 PWINO PNO
KE16 090755Z AUTO 32006KT 10SM OVC050 18/13 A3000 RMK AO2 PWINO PNO
KE16 090735Z AUTO 33007KT 10SM OVC050 18/13 A3000 RMK AO2 PWINO PNO
KE16 090715Z AUTO 34009KT 10SM BKN050 18/13 A3000 RMK AO2 PWINO PNO
KE16 090655Z AUTO 33008KT 10SM OVC050 18/13 A3000 RMK AO2 PWINO PNO
KE16 090635Z AUTO 33010KT 10SM OVC050 19/13 A2999 RMK AO2 PWINO PNO
KE16 090615Z AUTO 33009G17KT 10SM OVC050 19/13 A2999 RMK AO2 PWINO PNO
KE16 090555Z AUTO 33010G15KT 10SM OVC050 19/13 A2999 RMK AO2 PWINO PNO
KE16 090535Z AUTO 32012G15KT 10SM OVC050 19/12 A2999 RMK AO2 PWINO PNO
KE16 090515Z AUTO 32008KT 10SM OVC050 19/12 A3000 RMK AO2 PWINO PNO
KE16 090455Z AUTO 31009G14KT 10SM OVC050 20/12 A2999 RMK AO2 PWINO PNO
KE16 090435Z AUTO 32010G17KT 10SM OVC050 20/12 A2999 RMK AO2 PWINO PNO
KE16 090415Z AUTO 32012G15KT 10SM OVC050 20/12 A2998 RMK AO2 PWINO PNO
KE16 090355Z AUTO 32010G16KT 10SM BKN050 21/11 A2997 RMK AO2 PWINO PNO
KE16 090335Z AUTO 31011G18KT 10SM CLR 22/10 A2997 RMK AO2 PWINO PNO
KE16 090315Z AUTO 32011G16KT 10SM CLR 22/10 A2996 RMK AO2 PWINO PNO
KE16 090255Z AUTO 31012G18KT 10SM CLR 23/10 A2995 RMK AO2 PWINO PNO
KE16 090235Z AUTO 30016G20KT 10SM CLR 24/10 A2995 RMK AO2 PWINO PNO
KE16 090215Z AUTO 31014KT 10SM CLR 24/10 A2994 RMK AO2 PWINO PNO
KE16 090155Z AUTO 33014G18KT 10SM CLR 25/10 A2994 RMK AO2 PWINO PNO